sensor_id;sensor_type;location;lat;lon;timestamp;P1;durP1;ratioP1;P2;durP2;ratioP2
39880;SDS011;25554;44.954;10.068;2023-05-02T06:34:56;11.38;;;7.43;;
39880;SDS011;25554;44.954;10.068;2023-05-02T06:37:50;10.32;;;6.88;;
39880;SDS011;25554;44.954;10.068;2023-05-02T06:40:49;11.05;;;7.22;;
39880;SDS011;25554;44.954;10.068;2023-05-02T06:43:32;13.93;;;9.00;;
39880;SDS011;25554;44.954;10.068;2023-05-02T06:48:59;14.30;;;9.20;;
39880;SDS011;25554;44.954;10.068;2023-05-02T06:51:32;17.58;;;9.45;;
39880;SDS011;25554;44.954;10.068;2023-05-02T06:54:08;15.73;;;9.85;;
39880;SDS011;25554;44.954;10.068;2023-05-02T06:56:42;15.82;;;8.98;;
39880;SDS011;25554;44.954;10.068;2023-05-02T06:59:13;13.85;;;9.43;;
39880;SDS011;25554;44.954;10.068;2023-05-02T07:01:47;12.57;;;8.48;;
39880;SDS011;25554;44.954;10.068;2023-05-02T07:04:54;10.07;;;7.03;;
39880;SDS011;25554;44.954;10.068;2023-05-02T07:11:41;13.10;;;7.55;;
39880;SDS011;25554;44.954;10.068;2023-05-02T07:14:18;13.00;;;8.60;;
39880;SDS011;25554;44.954;10.068;2023-05-02T07:16:55;10.70;;;7.95;;
39880;SDS011;25554;44.954;10.068;2023-05-02T07:24:22;13.10;;;7.15;;
39880;SDS011;25554;44.954;10.068;2023-05-02T07:26:57;7.50;;;5.85;;
39880;SDS011;25554;44.954;10.068;2023-05-02T07:33:04;8.52;;;6.30;;
39880;SDS011;25554;44.954;10.068;2023-05-02T07:39:00;8.48;;;5.35;;
39880;SDS011;25554;44.954;10.068;2023-05-02T07:41:30;7.10;;;5.45;;
39880;SDS011;25554;44.954;10.068;2023-05-02T07:44:05;7.95;;;6.35;;
39880;SDS011;25554;44.954;10.068;2023-05-02T07:46:36;6.90;;;4.70;;
39880;SDS011;25554;44.954;10.068;2023-05-02T07:49:07;6.65;;;5.25;;
39880;SDS011;25554;44.954;10.068;2023-05-02T07:51:34;8.45;;;5.85;;
39880;SDS011;25554;44.954;10.068;2023-05-02T07:56:27;10.65;;;6.50;;
39880;SDS011;25554;44.954;10.068;2023-05-02T07:58:54;7.60;;;5.82;;
39880;SDS011;25554;44.954;10.068;2023-05-02T08:03:47;7.85;;;5.85;;
39880;SDS011;25554;44.954;10.068;2023-05-02T08:06:14;7.75;;;6.22;;
39880;SDS011;25554;44.954;10.068;2023-05-02T08:11:06;8.60;;;6.40;;
39880;SDS011;25554;44.954;10.068;2023-05-02T08:15:59;8.77;;;6.80;;
39880;SDS011;25554;44.954;10.068;2023-05-02T08:18:27;7.97;;;7.00;;
39880;SDS011;25554;44.954;10.068;2023-05-02T08:23:20;7.93;;;6.22;;
39880;SDS011;25554;44.954;10.068;2023-05-02T08:28:13;8.60;;;6.22;;
39880;SDS011;25554;44.954;10.068;2023-05-02T08:33:05;7.63;;;5.80;;
39880;SDS011;25554;44.954;10.068;2023-05-02T08:35:32;5.72;;;4.97;;
39880;SDS011;25554;44.954;10.068;2023-05-02T08:40:24;4.97;;;4.47;;
39880;SDS011;25554;44.954;10.068;2023-05-02T08:47:45;7.10;;;5.40;;
39880;SDS011;25554;44.954;10.068;2023-05-02T08:50:12;7.05;;;5.38;;
39880;SDS011;25554;44.954;10.068;2023-05-02T08:52:40;6.45;;;5.13;;
39880;SDS011;25554;44.954;10.068;2023-05-02T08:55:08;5.63;;;4.90;;
39880;SDS011;25554;44.954;10.068;2023-05-02T08:57:37;6.07;;;4.38;;
39880;SDS011;25554;44.954;10.068;2023-05-02T09:00:04;9.82;;;5.30;;
39880;SDS011;25554;44.954;10.068;2023-05-02T09:02:48;7.18;;;5.53;;
39880;SDS011;25554;44.954;10.068;2023-05-02T09:05:18;6.75;;;5.57;;
39880;SDS011;25554;44.954;10.068;2023-05-02T09:07:46;5.97;;;5.05;;
39880;SDS011;25554;44.954;10.068;2023-05-02T09:10:14;5.15;;;4.40;;
39880;SDS011;25554;44.954;10.068;2023-05-02T09:12:40;5.40;;;4.90;;
39880;SDS011;25554;44.954;10.068;2023-05-02T09:15:13;6.25;;;4.75;;
39880;SDS011;25554;44.954;10.068;2023-05-02T09:17:41;5.55;;;4.22;;
39880;SDS011;25554;44.954;10.068;2023-05-02T09:20:12;6.07;;;4.85;;
39880;SDS011;25554;44.954;10.068;2023-05-02T09:22:47;5.70;;;4.90;;
39880;SDS011;25554;44.954;10.068;2023-05-02T09:25:15;6.75;;;5.72;;
39880;SDS011;25554;44.954;10.068;2023-05-02T09:27:48;6.57;;;5.88;;
39880;SDS011;25554;44.954;10.068;2023-05-02T09:30:23;6.50;;;5.15;;
39880;SDS011;25554;44.954;10.068;2023-05-02T09:32:51;5.40;;;4.80;;
39880;SDS011;25554;44.954;10.068;2023-05-02T09:35:20;5.72;;;5.13;;
39880;SDS011;25554;44.954;10.068;2023-05-02T09:37:51;5.65;;;5.10;;
39880;SDS011;25554;44.954;10.068;2023-05-02T09:40:21;6.38;;;5.50;;
39880;SDS011;25554;44.954;10.068;2023-05-02T09:42:49;5.68;;;4.53;;
39880;SDS011;25554;44.954;10.068;2023-05-02T09:45:19;8.48;;;5.38;;
39880;SDS011;25554;44.954;10.068;2023-05-02T09:47:46;6.72;;;4.70;;
39880;SDS011;25554;44.954;10.068;2023-05-02T09:50:30;6.18;;;4.75;;
39880;SDS011;25554;44.954;10.068;2023-05-02T09:53:01;5.20;;;4.20;;
39880;SDS011;25554;44.954;10.068;2023-05-02T09:55:28;5.00;;;3.83;;
39880;SDS011;25554;44.954;10.068;2023-05-02T09:57:55;3.70;;;3.30;;
39880;SDS011;25554;44.954;10.068;2023-05-02T10:02:49;5.78;;;3.67;;
39880;SDS011;25554;44.954;10.068;2023-05-02T10:05:16;3.65;;;3.22;;
39880;SDS011;25554;44.954;10.068;2023-05-02T10:07:44;4.47;;;3.40;;
39880;SDS011;25554;44.954;10.068;2023-05-02T10:12:37;5.97;;;3.88;;
39880;SDS011;25554;44.954;10.068;2023-05-02T10:15:04;5.97;;;3.95;;
39880;SDS011;25554;44.954;10.068;2023-05-02T10:17:36;4.53;;;3.40;;
39880;SDS011;25554;44.954;10.068;2023-05-02T10:20:06;4.70;;;3.95;;
39880;SDS011;25554;44.954;10.068;2023-05-02T10:22:33;3.47;;;3.17;;
39880;SDS011;25554;44.954;10.068;2023-05-02T10:25:01;3.95;;;3.55;;
39880;SDS011;25554;44.954;10.068;2023-05-02T10:27:28;3.83;;;3.40;;
39880;SDS011;25554;44.954;10.068;2023-05-02T10:29:57;20.75;;;7.53;;
39880;SDS011;25554;44.954;10.068;2023-05-02T10:32:26;5.07;;;4.15;;
39880;SDS011;25554;44.954;10.068;2023-05-02T10:34:53;8.98;;;3.78;;
39880;SDS011;25554;44.954;10.068;2023-05-02T10:37:22;4.88;;;4.00;;
39880;SDS011;25554;44.954;10.068;2023-05-02T10:39:49;3.95;;;3.63;;
39880;SDS011;25554;44.954;10.068;2023-05-02T10:44:42;3.92;;;3.47;;
39880;SDS011;25554;44.954;10.068;2023-05-02T10:47:22;4.38;;;3.97;;
39880;SDS011;25554;44.954;10.068;2023-05-02T10:49:52;4.55;;;3.83;;
39880;SDS011;25554;44.954;10.068;2023-05-02T10:52:29;4.80;;;3.90;;
39880;SDS011;25554;44.954;10.068;2023-05-02T10:57:22;3.80;;;3.50;;
39880;SDS011;25554;44.954;10.068;2023-05-02T11:04:58;3.65;;;3.35;;
39880;SDS011;25554;44.954;10.068;2023-05-02T11:07:26;4.13;;;3.65;;
39880;SDS011;25554;44.954;10.068;2023-05-02T11:09:52;4.28;;;3.40;;
39880;SDS011;25554;44.954;10.068;2023-05-02T11:14:46;4.20;;;3.80;;
39880;SDS011;25554;44.954;10.068;2023-05-02T11:17:13;7.35;;;3.38;;
39880;SDS011;25554;44.954;10.068;2023-05-02T11:24:45;5.43;;;4.22;;
39880;SDS011;25554;44.954;10.068;2023-05-02T11:29:58;13.73;;;8.85;;
39880;SDS011;25554;44.954;10.068;2023-05-02T11:33:09;7.82;;;2.78;;
39880;SDS011;25554;44.954;10.068;2023-05-02T11:35:22;3.33;;;2.40;;
39880;SDS011;25554;44.954;10.068;2023-05-02T11:37:56;2.35;;;2.15;;
39880;SDS011;25554;44.954;10.068;2023-05-02T11:40:23;2.60;;;2.40;;
39880;SDS011;25554;44.954;10.068;2023-05-02T11:42:50;2.08;;;1.75;;
39880;SDS011;25554;44.954;10.068;2023-05-02T11:47:43;1.95;;;1.52;;
39880;SDS011;25554;44.954;10.068;2023-05-02T11:50:11;1.75;;;1.65;;
39880;SDS011;25554;44.954;10.068;2023-05-02T11:52:38;2.38;;;1.58;;
39880;SDS011;25554;44.954;10.068;2023-05-02T11:55:05;6.05;;;1.55;;
39880;SDS011;25554;44.954;10.068;2023-05-02T11:57:33;2.28;;;1.33;;
39880;SDS011;25554;44.954;10.068;2023-05-02T12:00:00;1.40;;;1.30;;
39880;SDS011;25554;44.954;10.068;2023-05-02T12:02:42;3.20;;;1.13;;
39880;SDS011;25554;44.954;10.068;2023-05-02T12:05:10;1.30;;;1.20;;
39880;SDS011;25554;44.954;10.068;2023-05-02T12:07:44;2.20;;;1.50;;
39880;SDS011;25554;44.954;10.068;2023-05-02T12:10:11;1.20;;;1.10;;
39880;SDS011;25554;44.954;10.068;2023-05-02T12:12:39;1.45;;;1.35;;
39880;SDS011;25554;44.954;10.068;2023-05-02T12:15:06;1.20;;;1.20;;
39880;SDS011;25554;44.954;10.068;2023-05-02T12:17:33;2.45;;;1.20;;
39880;SDS011;25554;44.954;10.068;2023-05-02T12:20:02;1.98;;;1.85;;
39880;SDS011;25554;44.954;10.068;2023-05-02T12:22:29;3.65;;;1.65;;
39880;SDS011;25554;44.954;10.068;2023-05-02T12:24:56;2.15;;;1.38;;
39880;SDS011;25554;44.954;10.068;2023-05-02T12:27:23;1.65;;;1.55;;
39880;SDS011;25554;44.954;10.068;2023-05-02T12:32:25;1.55;;;1.40;;
39880;SDS011;25554;44.954;10.068;2023-05-02T12:34:53;1.70;;;1.60;;
39880;SDS011;25554;44.954;10.068;2023-05-02T12:39:46;2.00;;;1.83;;
39880;SDS011;25554;44.954;10.068;2023-05-02T12:44:39;2.78;;;1.42;;
39880;SDS011;25554;44.954;10.068;2023-05-02T12:47:06;2.58;;;1.50;;
39880;SDS011;25554;44.954;10.068;2023-05-02T12:49:49;2.17;;;1.70;;
39880;SDS011;25554;44.954;10.068;2023-05-02T12:52:17;1.90;;;1.80;;
39880;SDS011;25554;44.954;10.068;2023-05-02T12:54:43;1.80;;;1.67;;
39880;SDS011;25554;44.954;10.068;2023-05-02T12:57:20;2.28;;;1.98;;
39880;SDS011;25554;44.954;10.068;2023-05-02T13:02:13;2.05;;;1.90;;
39880;SDS011;25554;44.954;10.068;2023-05-02T13:04:40;1.90;;;1.80;;
39880;SDS011;25554;44.954;10.068;2023-05-02T13:09:33;1.95;;;1.85;;
39880;SDS011;25554;44.954;10.068;2023-05-02T13:14:27;4.38;;;2.10;;
39880;SDS011;25554;44.954;10.068;2023-05-02T13:16:54;2.00;;;1.90;;
39880;SDS011;25554;44.954;10.068;2023-05-02T13:19:21;1.88;;;1.77;;
39880;SDS011;25554;44.954;10.068;2023-05-02T13:21:47;2.10;;;1.98;;
39880;SDS011;25554;44.954;10.068;2023-05-02T13:24:14;2.20;;;2.00;;
39880;SDS011;25554;44.954;10.068;2023-05-02T13:26:42;2.33;;;2.08;;
39880;SDS011;25554;44.954;10.068;2023-05-02T13:29:08;2.00;;;1.80;;
39880;SDS011;25554;44.954;10.068;2023-05-02T13:31:37;1.83;;;1.60;;
39880;SDS011;25554;44.954;10.068;2023-05-02T13:34:03;2.25;;;1.98;;
39880;SDS011;25554;44.954;10.068;2023-05-02T13:36:30;1.98;;;1.67;;
39880;SDS011;25554;44.954;10.068;2023-05-02T13:41:23;2.20;;;2.10;;
39880;SDS011;25554;44.954;10.068;2023-05-02T13:43:49;2.55;;;2.35;;
39880;SDS011;25554;44.954;10.068;2023-05-02T13:48:42;2.40;;;2.05;;
39880;SDS011;25554;44.954;10.068;2023-05-02T13:53:35;2.47;;;2.17;;
39880;SDS011;25554;44.954;10.068;2023-05-02T13:56:02;3.42;;;2.20;;
39880;SDS011;25554;44.954;10.068;2023-05-02T13:58:29;2.53;;;2.30;;
39880;SDS011;25554;44.954;10.068;2023-05-02T14:00:56;2.70;;;2.50;;
39880;SDS011;25554;44.954;10.068;2023-05-02T14:05:48;4.55;;;2.67;;
39880;SDS011;25554;44.954;10.068;2023-05-02T14:08:15;3.53;;;2.70;;
39880;SDS011;25554;44.954;10.068;2023-05-02T14:10:43;2.47;;;2.28;;
39880;SDS011;25554;44.954;10.068;2023-05-02T14:15:36;3.00;;;2.60;;
39880;SDS011;25554;44.954;10.068;2023-05-02T14:18:03;4.40;;;2.63;;
39880;SDS011;25554;44.954;10.068;2023-05-02T14:20:29;2.20;;;2.00;;
39880;SDS011;25554;44.954;10.068;2023-05-02T14:25:22;2.22;;;2.03;;
39880;SDS011;25554;44.954;10.068;2023-05-02T14:27:48;2.53;;;2.33;;
39880;SDS011;25554;44.954;10.068;2023-05-02T14:30:14;2.80;;;2.60;;
39880;SDS011;25554;44.954;10.068;2023-05-02T14:32:41;3.30;;;2.65;;
39880;SDS011;25554;44.954;10.068;2023-05-02T14:35:07;2.50;;;2.30;;
39880;SDS011;25554;44.954;10.068;2023-05-02T14:37:34;3.50;;;2.05;;
39880;SDS011;25554;44.954;10.068;2023-05-02T14:42:26;4.43;;;2.08;;
39880;SDS011;25554;44.954;10.068;2023-05-02T14:44:53;3.33;;;2.00;;
39880;SDS011;25554;44.954;10.068;2023-05-02T14:49:46;2.88;;;2.10;;
39880;SDS011;25554;44.954;10.068;2023-05-02T14:52:13;3.63;;;1.90;;
39880;SDS011;25554;44.954;10.068;2023-05-02T14:57:06;2.50;;;2.30;;
39880;SDS011;25554;44.954;10.068;2023-05-02T14:59:33;3.00;;;2.03;;
39880;SDS011;25554;44.954;10.068;2023-05-02T15:02:00;2.88;;;2.53;;
39880;SDS011;25554;44.954;10.068;2023-05-02T15:04:26;3.70;;;2.05;;
39880;SDS011;25554;44.954;10.068;2023-05-02T15:06:53;4.18;;;2.60;;
39880;SDS011;25554;44.954;10.068;2023-05-02T15:09:19;2.85;;;2.65;;
39880;SDS011;25554;44.954;10.068;2023-05-02T15:11:46;4.25;;;2.30;;
39880;SDS011;25554;44.954;10.068;2023-05-02T15:14:12;2.75;;;2.55;;
39880;SDS011;25554;44.954;10.068;2023-05-02T15:16:39;2.72;;;2.53;;
39880;SDS011;25554;44.954;10.068;2023-05-02T15:19:05;5.00;;;2.95;;
39880;SDS011;25554;44.954;10.068;2023-05-02T15:21:32;2.78;;;2.58;;
39880;SDS011;25554;44.954;10.068;2023-05-02T15:23:59;7.45;;;2.55;;
39880;SDS011;25554;44.954;10.068;2023-05-02T15:26:26;3.08;;;2.83;;
39880;SDS011;25554;44.954;10.068;2023-05-02T15:28:53;3.20;;;3.00;;
39880;SDS011;25554;44.954;10.068;2023-05-02T15:31:20;3.70;;;2.30;;
39880;SDS011;25554;44.954;10.068;2023-05-02T15:33:47;3.53;;;2.53;;
39880;SDS011;25554;44.954;10.068;2023-05-02T15:38:40;3.73;;;3.10;;
39880;SDS011;25554;44.954;10.068;2023-05-02T15:41:08;3.75;;;3.10;;
39880;SDS011;25554;44.954;10.068;2023-05-02T15:43:35;3.45;;;3.08;;
39880;SDS011;25554;44.954;10.068;2023-05-02T15:46:02;4.05;;;2.50;;
39880;SDS011;25554;44.954;10.068;2023-05-02T15:48:29;4.18;;;2.63;;
39880;SDS011;25554;44.954;10.068;2023-05-02T15:50:59;2.63;;;2.42;;
39880;SDS011;25554;44.954;10.068;2023-05-02T15:53:27;2.55;;;2.35;;
39880;SDS011;25554;44.954;10.068;2023-05-02T15:55:53;2.90;;;2.53;;
39880;SDS011;25554;44.954;10.068;2023-05-02T16:00:46;4.03;;;2.17;;
39880;SDS011;25554;44.954;10.068;2023-05-02T16:03:12;2.33;;;2.13;;
39880;SDS011;25554;44.954;10.068;2023-05-02T16:05:40;4.13;;;1.83;;
39880;SDS011;25554;44.954;10.068;2023-05-02T16:08:06;3.03;;;2.83;;
39880;SDS011;25554;44.954;10.068;2023-05-02T16:15:26;2.92;;;2.38;;
39880;SDS011;25554;44.954;10.068;2023-05-02T16:17:54;2.55;;;1.70;;
39880;SDS011;25554;44.954;10.068;2023-05-02T16:20:21;1.70;;;1.60;;
39880;SDS011;25554;44.954;10.068;2023-05-02T16:25:14;2.40;;;1.88;;
39880;SDS011;25554;44.954;10.068;2023-05-02T16:27:41;3.35;;;1.55;;
39880;SDS011;25554;44.954;10.068;2023-05-02T16:30:08;6.18;;;2.50;;
39880;SDS011;25554;44.954;10.068;2023-05-02T16:32:35;1.77;;;1.67;;
39880;SDS011;25554;44.954;10.068;2023-05-02T16:35:02;6.32;;;2.03;;
39880;SDS011;25554;44.954;10.068;2023-05-02T16:37:32;2.65;;;2.30;;
39880;SDS011;25554;44.954;10.068;2023-05-02T16:39:59;2.00;;;1.90;;
39880;SDS011;25554;44.954;10.068;2023-05-02T16:42:26;2.42;;;2.25;;
39880;SDS011;25554;44.954;10.068;2023-05-02T16:47:20;2.03;;;1.92;;
39880;SDS011;25554;44.954;10.068;2023-05-02T16:49:51;2.88;;;2.50;;
39880;SDS011;25554;44.954;10.068;2023-05-02T16:52:18;3.50;;;2.38;;
39880;SDS011;25554;44.954;10.068;2023-05-02T16:57:10;4.38;;;2.47;;
39880;SDS011;25554;44.954;10.068;2023-05-02T16:59:37;2.55;;;2.35;;
39880;SDS011;25554;44.954;10.068;2023-05-02T17:02:04;2.35;;;2.15;;
39880;SDS011;25554;44.954;10.068;2023-05-02T17:04:31;4.53;;;2.63;;
39880;SDS011;25554;44.954;10.068;2023-05-02T17:09:23;2.75;;;2.55;;
39880;SDS011;25554;44.954;10.068;2023-05-02T17:11:50;4.05;;;2.10;;
39880;SDS011;25554;44.954;10.068;2023-05-02T17:16:44;3.22;;;2.30;;
39880;SDS011;25554;44.954;10.068;2023-05-02T17:21:37;5.35;;;2.50;;
39880;SDS011;25554;44.954;10.068;2023-05-02T17:26:30;2.83;;;1.90;;
39880;SDS011;25554;44.954;10.068;2023-05-02T17:31:22;2.70;;;2.00;;
39880;SDS011;25554;44.954;10.068;2023-05-02T17:33:49;4.28;;;1.75;;
39880;SDS011;25554;44.954;10.068;2023-05-02T17:36:16;1.90;;;1.70;;
39880;SDS011;25554;44.954;10.068;2023-05-02T17:38:42;2.40;;;2.20;;
39880;SDS011;25554;44.954;10.068;2023-05-02T17:41:09;4.70;;;2.42;;
39880;SDS011;25554;44.954;10.068;2023-05-02T17:43:36;3.38;;;1.88;;
39880;SDS011;25554;44.954;10.068;2023-05-02T17:46:06;2.60;;;1.70;;
39880;SDS011;25554;44.954;10.068;2023-05-02T17:48:34;1.98;;;1.80;;
39880;SDS011;25554;44.954;10.068;2023-05-02T17:51:01;2.55;;;1.77;;
39880;SDS011;25554;44.954;10.068;2023-05-02T17:53:29;2.72;;;1.85;;
39880;SDS011;25554;44.954;10.068;2023-05-02T17:55:55;5.03;;;2.00;;
39880;SDS011;25554;44.954;10.068;2023-05-02T18:00:48;2.05;;;1.85;;
39880;SDS011;25554;44.954;10.068;2023-05-02T18:03:15;2.47;;;2.28;;
39880;SDS011;25554;44.954;10.068;2023-05-02T18:05:42;2.63;;;2.22;;
39880;SDS011;25554;44.954;10.068;2023-05-02T18:08:11;2.35;;;2.03;;
39880;SDS011;25554;44.954;10.068;2023-05-02T18:10:39;1.92;;;1.70;;
39880;SDS011;25554;44.954;10.068;2023-05-02T18:13:06;3.15;;;1.63;;
39880;SDS011;25554;44.954;10.068;2023-05-02T18:15:32;2.47;;;1.60;;
39880;SDS011;25554;44.954;10.068;2023-05-02T18:20:25;1.88;;;1.67;;
39880;SDS011;25554;44.954;10.068;2023-05-02T18:25:21;3.45;;;2.17;;
39880;SDS011;25554;44.954;10.068;2023-05-02T18:30:14;4.13;;;2.25;;
39880;SDS011;25554;44.954;10.068;2023-05-02T18:35:07;3.03;;;2.55;;
39880;SDS011;25554;44.954;10.068;2023-05-02T18:37:37;2.67;;;2.42;;
39880;SDS011;25554;44.954;10.068;2023-05-02T18:40:03;3.50;;;2.78;;
39880;SDS011;25554;44.954;10.068;2023-05-02T18:42:30;3.10;;;2.50;;
39880;SDS011;25554;44.954;10.068;2023-05-02T18:47:22;2.60;;;2.40;;
39880;SDS011;25554;44.954;10.068;2023-05-02T18:52:15;2.80;;;2.53;;
39880;SDS011;25554;44.954;10.068;2023-05-02T18:57:08;2.53;;;2.33;;
39880;SDS011;25554;44.954;10.068;2023-05-02T19:02:00;4.07;;;2.88;;
39880;SDS011;25554;44.954;10.068;2023-05-02T19:06:55;3.55;;;3.10;;
39880;SDS011;25554;44.954;10.068;2023-05-02T19:11:47;2.65;;;2.45;;
39880;SDS011;25554;44.954;10.068;2023-05-02T19:16:40;2.75;;;2.38;;
39880;SDS011;25554;44.954;10.068;2023-05-02T19:21:32;4.30;;;2.55;;
39880;SDS011;25554;44.954;10.068;2023-05-02T19:26:26;2.92;;;2.00;;
39880;SDS011;25554;44.954;10.068;2023-05-02T19:28:53;4.03;;;2.60;;
39880;SDS011;25554;44.954;10.068;2023-05-02T19:33:46;2.80;;;2.45;;
39880;SDS011;25554;44.954;10.068;2023-05-02T19:36:16;3.30;;;2.28;;
39880;SDS011;25554;44.954;10.068;2023-05-02T19:38:46;4.20;;;2.13;;
39880;SDS011;25554;44.954;10.068;2023-05-02T19:41:13;4.10;;;2.15;;
39880;SDS011;25554;44.954;10.068;2023-05-02T19:43:41;2.40;;;2.20;;
39880;SDS011;25554;44.954;10.068;2023-05-02T19:46:08;2.50;;;2.10;;
39880;SDS011;25554;44.954;10.068;2023-05-02T19:51:01;3.00;;;2.00;;
39880;SDS011;25554;44.954;10.068;2023-05-02T19:53:29;2.65;;;2.45;;
39880;SDS011;25554;44.954;10.068;2023-05-02T19:55:59;5.07;;;1.63;;
39880;SDS011;25554;44.954;10.068;2023-05-02T19:58:26;2.70;;;1.95;;
39880;SDS011;25554;44.954;10.068;2023-05-02T20:00:54;3.05;;;2.25;;
39880;SDS011;25554;44.954;10.068;2023-05-02T20:03:21;2.53;;;2.08;;
39880;SDS011;25554;44.954;10.068;2023-05-02T20:08:14;2.63;;;2.42;;
39880;SDS011;25554;44.954;10.068;2023-05-02T20:10:40;2.35;;;2.10;;
39880;SDS011;25554;44.954;10.068;2023-05-02T20:13:10;4.47;;;2.83;;
39880;SDS011;25554;44.954;10.068;2023-05-02T20:18:03;3.47;;;3.15;;
39880;SDS011;25554;44.954;10.068;2023-05-02T20:20:29;3.22;;;2.92;;
39880;SDS011;25554;44.954;10.068;2023-05-02T20:25:23;3.17;;;2.88;;
39880;SDS011;25554;44.954;10.068;2023-05-02T20:27:50;6.45;;;3.20;;
39880;SDS011;25554;44.954;10.068;2023-05-02T20:30:17;4.18;;;3.78;;
39880;SDS011;25554;44.954;10.068;2023-05-02T20:32:44;5.00;;;3.17;;
39880;SDS011;25554;44.954;10.068;2023-05-02T20:37:37;3.40;;;3.10;;
39880;SDS011;25554;44.954;10.068;2023-05-02T20:42:34;3.63;;;3.20;;
39880;SDS011;25554;44.954;10.068;2023-05-02T20:45:03;4.45;;;4.05;;
39880;SDS011;25554;44.954;10.068;2023-05-02T20:47:32;3.80;;;3.38;;
39880;SDS011;25554;44.954;10.068;2023-05-02T20:49:58;4.00;;;3.70;;
39880;SDS011;25554;44.954;10.068;2023-05-02T20:54:54;5.80;;;3.88;;
39880;SDS011;25554;44.954;10.068;2023-05-02T20:57:21;3.88;;;3.58;;
39880;SDS011;25554;44.954;10.068;2023-05-02T20:59:47;4.50;;;3.65;;
39880;SDS011;25554;44.954;10.068;2023-05-02T21:04:40;3.92;;;3.30;;
39880;SDS011;25554;44.954;10.068;2023-05-02T21:09:32;4.18;;;3.35;;
39880;SDS011;25554;44.954;10.068;2023-05-02T21:14:26;5.80;;;3.65;;
39880;SDS011;25554;44.954;10.068;2023-05-02T21:19:18;4.50;;;3.13;;
39880;SDS011;25554;44.954;10.068;2023-05-02T21:21:45;3.88;;;3.22;;
39880;SDS011;25554;44.954;10.068;2023-05-02T21:24:12;3.65;;;3.35;;
39880;SDS011;25554;44.954;10.068;2023-05-02T21:29:07;3.42;;;3.13;;
39880;SDS011;25554;44.954;10.068;2023-05-02T21:31:35;3.40;;;3.10;;
39880;SDS011;25554;44.954;10.068;2023-05-02T21:34:03;3.55;;;3.03;;
39880;SDS011;25554;44.954;10.068;2023-05-02T21:36:30;3.92;;;2.85;;
39880;SDS011;25554;44.954;10.068;2023-05-02T21:38:57;3.85;;;3.47;;
39880;SDS011;25554;44.954;10.068;2023-05-02T21:43:49;3.53;;;2.60;;
39880;SDS011;25554;44.954;10.068;2023-05-02T21:48:42;3.55;;;2.55;;
39880;SDS011;25554;44.954;10.068;2023-05-02T21:53:36;4.80;;;3.15;;
39880;SDS011;25554;44.954;10.068;2023-05-02T21:56:03;2.92;;;2.60;;
39880;SDS011;25554;44.954;10.068;2023-05-02T21:58:30;3.03;;;2.67;;
39880;SDS011;25554;44.954;10.068;2023-05-02T22:00:57;4.28;;;3.00;;
39880;SDS011;25554;44.954;10.068;2023-05-02T22:05:50;3.20;;;2.90;;
39880;SDS011;25554;44.954;10.068;2023-05-02T22:08:19;3.97;;;3.20;;
39880;SDS011;25554;44.954;10.068;2023-05-02T22:10:46;3.45;;;2.92;;
39880;SDS011;25554;44.954;10.068;2023-05-02T22:13:13;3.83;;;2.60;;
39880;SDS011;25554;44.954;10.068;2023-05-02T22:15:44;4.25;;;2.92;;
39880;SDS011;25554;44.954;10.068;2023-05-02T22:18:11;2.92;;;2.63;;
39880;SDS011;25554;44.954;10.068;2023-05-02T22:20:39;3.25;;;2.58;;
39880;SDS011;25554;44.954;10.068;2023-05-02T22:23:06;3.63;;;2.53;;
39880;SDS011;25554;44.954;10.068;2023-05-02T22:25:33;3.45;;;3.05;;
39880;SDS011;25554;44.954;10.068;2023-05-02T22:28:04;3.40;;;3.03;;
39880;SDS011;25554;44.954;10.068;2023-05-02T22:30:31;4.20;;;2.67;;
39880;SDS011;25554;44.954;10.068;2023-05-02T22:32:58;3.38;;;2.45;;
39880;SDS011;25554;44.954;10.068;2023-05-02T22:35:25;4.85;;;3.00;;
39880;SDS011;25554;44.954;10.068;2023-05-02T22:37:52;5.25;;;3.22;;
39880;SDS011;25554;44.954;10.068;2023-05-02T22:40:19;4.18;;;3.72;;
39880;SDS011;25554;44.954;10.068;2023-05-02T22:42:45;5.80;;;3.95;;
39880;SDS011;25554;44.954;10.068;2023-05-02T22:47:38;4.25;;;2.80;;
39880;SDS011;25554;44.954;10.068;2023-05-02T22:50:05;3.10;;;2.80;;
39880;SDS011;25554;44.954;10.068;2023-05-02T22:52:36;4.65;;;3.80;;
39880;SDS011;25554;44.954;10.068;2023-05-02T22:55:04;4.65;;;3.97;;
39880;SDS011;25554;44.954;10.068;2023-05-02T22:57:34;4.90;;;3.70;;
39880;SDS011;25554;44.954;10.068;2023-05-02T23:00:01;5.60;;;3.67;;
39880;SDS011;25554;44.954;10.068;2023-05-02T23:02:32;5.97;;;3.67;;
39880;SDS011;25554;44.954;10.068;2023-05-02T23:04:59;3.40;;;3.10;;
39880;SDS011;25554;44.954;10.068;2023-05-02T23:07:25;4.80;;;3.83;;
39880;SDS011;25554;44.954;10.068;2023-05-02T23:09:52;3.42;;;3.00;;
39880;SDS011;25554;44.954;10.068;2023-05-02T23:14:45;4.15;;;2.95;;
39880;SDS011;25554;44.954;10.068;2023-05-02T23:19:37;5.22;;;3.15;;
39880;SDS011;25554;44.954;10.068;2023-05-02T23:24:30;5.28;;;3.42;;
39880;SDS011;25554;44.954;10.068;2023-05-02T23:26:57;4.78;;;3.40;;
39880;SDS011;25554;44.954;10.068;2023-05-02T23:31:50;4.20;;;3.50;;
39880;SDS011;25554;44.954;10.068;2023-05-02T23:34:19;4.75;;;3.85;;
39880;SDS011;25554;44.954;10.068;2023-05-02T23:36:46;6.75;;;3.60;;
39880;SDS011;25554;44.954;10.068;2023-05-02T23:39:13;3.35;;;2.92;;
39880;SDS011;25554;44.954;10.068;2023-05-02T23:41:39;4.70;;;3.47;;
39880;SDS011;25554;44.954;10.068;2023-05-02T23:46:32;6.90;;;3.78;;
39880;SDS011;25554;44.954;10.068;2023-05-02T23:51:24;4.20;;;3.72;;
39880;SDS011;25554;44.954;10.068;2023-05-02T23:53:52;4.20;;;3.58;;
39880;SDS011;25554;44.954;10.068;2023-05-02T23:58:45;4.38;;;2.88;;
